Time;durP1;ratioP1;P1;durP2;ratioP2;P2;SDS_P1;SDS_P2;PMS_P1;PMS_P2;Temp;Humidity;BMP_temperature;BMP_pressure;BME280_temperature;BME280_humidity;BME280_pressure;Samples;Min_cycle;Max_cycle;Signal;HPM_P1;HPM_P2
2023/06/11 00:00:01;;;;;;;6.13;1.45;;;;;;;12.96;84.67;102076.03;5018646;28;20191;-49
2023/06/11 00:02:32;;;;;;;4.25;1.38;;;;;;;12.99;84.96;102070.59;5016192;28;20200;-48
2023/06/11 00:04:59;;;;;;;3.53;1.48;;;;;;;12.86;85.21;102080.81;5018655;28;20262;-48
2023/06/11 00:07:25;;;;;;;4.65;1.77;;;;;;;12.83;85.58;102078.19;5023145;28;20238;-49
2023/06/11 00:09:52;;;;;;;5.07;1.60;;;;;;;12.88;85.91;102080.75;5022629;28;20195;-46
2023/06/11 00:12:17;;;;;;;2.38;1.65;;;;;;;12.73;86.66;102071.31;5023493;28;20662;-48
2023/06/11 00:14:43;;;;;;;7.95;1.92;;;;;;;12.80;87.43;102089.03;5019816;28;20188;-49
2023/06/11 00:17:10;;;;;;;7.50;1.92;;;;;;;12.74;87.85;102065.00;5018787;28;20215;-49
2023/06/11 00:19:36;;;;;;;6.40;1.70;;;;;;;12.66;88.27;102069.69;5019333;28;20593;-48
2023/06/11 00:22:02;;;;;;;4.60;1.70;;;;;;;12.62;88.61;102070.72;5017402;28;20292;-49
2023/06/11 00:24:28;;;;;;;4.45;1.50;;;;;;;12.70;89.01;102066.91;5014721;28;20192;-49
2023/06/11 00:26:53;;;;;;;10.55;1.67;;;;;;;12.61;89.68;102069.81;4995787;28;20240;-49
2023/06/11 00:29:19;;;;;;;4.80;1.95;;;;;;;12.56;90.47;102085.19;5021803;28;20667;-48
2023/06/11 00:31:44;;;;;;;2.67;1.90;;;;;;;12.49;91.39;102076.41;5021435;28;20267;-49
2023/06/11 00:34:10;;;;;;;7.65;1.88;;;;;;;12.53;92.28;102091.53;5016602;28;20168;-49
2023/06/11 00:36:35;;;;;;;3.00;1.67;;;;;;;12.69;92.51;102083.06;5024775;28;20199;-49
2023/06/11 00:39:01;;;;;;;3.65;1.60;;;;;;;12.68;92.42;102082.19;5020846;28;20527;-50
2023/06/11 00:41:30;;;;;;;5.97;1.95;;;;;;;12.61;92.53;102079.69;5020148;28;20664;-50
2023/06/11 00:43:56;;;;;;;6.78;1.90;;;;;;;12.44;93.11;102075.66;5022841;28;20250;-51
2023/06/11 00:46:22;;;;;;;4.40;1.83;;;;;;;12.32;93.86;102084.91;5015335;28;20433;-49
2023/06/11 00:48:49;;;;;;;5.07;2.00;;;;;;;12.30;95.10;102080.50;5019416;28;20195;-49
2023/06/11 00:51:17;;;;;;;3.63;1.73;;;;;;;12.26;95.74;102076.13;5036110;28;20192;-48
2023/06/11 00:53:42;;;;;;;4.18;1.90;;;;;;;12.33;96.13;102072.34;5017925;28;20172;-49
2023/06/11 00:56:08;;;;;;;2.38;1.60;;;;;;;12.32;96.31;102074.16;5003766;28;20176;-49
2023/06/11 00:58:35;;;;;;;10.63;1.85;;;;;;;12.41;96.67;102082.91;5020174;28;20619;-51
2023/06/11 01:01:05;;;;;;;6.95;2.22;;;;;;;12.27;96.77;102076.09;5012403;28;20257;-49
2023/06/11 01:03:33;;;;;;;6.80;1.90;;;;;;;12.11;97.85;102080.06;5016674;28;20247;-47
2023/06/11 01:06:21;;;;;;;3.38;1.95;;;;;;;12.20;98.88;102090.59;5010924;28;20295;-50
2023/06/11 01:08:55;;;;;;;6.60;2.08;;;;;;;12.21;99.13;102088.78;5023763;28;20279;-50
2023/06/11 01:11:27;;;;;;;2.88;2.00;;;;;;;12.38;99.41;102080.31;5008937;28;20603;-50
2023/06/11 01:13:56;;;;;;;2.90;2.00;;;;;;;12.38;99.63;102088.38;5007071;28;20177;-51
2023/06/11 01:16:46;;;;;;;5.20;2.00;;;;;;;12.27;99.68;102083.28;5010683;28;20199;-49
2023/06/11 01:23:20;;;;;;;6.63;2.65;;;;;;;12.00;100.00;102076.75;5016865;28;20204;-49
2023/06/11 01:26:14;;;;;;;4.35;1.65;;;;;;;12.16;100.00;102080.84;4994680;28;20209;-49
2023/06/11 01:28:41;;;;;;;7.78;2.40;;;;;;;12.22;100.00;102080.69;5016004;28;20177;-49
2023/06/11 01:31:12;;;;;;;6.45;2.28;;;;;;;12.39;100.00;102079.38;5005687;28;20581;-49
2023/06/11 01:33:38;;;;;;;8.15;2.58;;;;;;;12.31;100.00;102077.78;5014158;28;20261;-48
2023/06/11 01:36:07;;;;;;;7.45;2.15;;;;;;;12.31;100.00;102075.09;5000059;28;20234;-49
2023/06/11 01:38:41;;;;;;;6.05;2.22;;;;;;;12.25;100.00;102080.63;5007777;28;20273;-48
2023/06/11 01:41:11;;;;;;;5.78;1.98;;;;;;;12.24;100.00;102080.66;5013677;28;20271;-48
2023/06/11 01:43:39;;;;;;;2.28;1.48;;;;;;;12.27;100.00;102081.47;5010233;28;20274;-48
2023/06/11 01:46:05;;;;;;;6.43;2.35;;;;;;;12.31;100.00;102087.63;5011901;28;20258;-48
2023/06/11 01:48:31;;;;;;;4.20;2.25;;;;;;;12.26;100.00;102081.50;5018167;28;20636;-49
2023/06/11 01:50:57;;;;;;;5.30;2.10;;;;;;;12.15;100.00;102087.13;5023555;28;20518;-49
2023/06/11 01:53:22;;;;;;;6.90;2.10;;;;;;;12.19;100.00;102094.19;5020203;28;20172;-48
2023/06/11 01:55:48;;;;;;;6.70;2.13;;;;;;;12.20;100.00;102082.56;5028462;28;20212;-48
2023/06/11 01:58:16;;;;;;;8.18;2.00;;;;;;;12.13;100.00;102094.34;5035177;28;20322;-48
2023/06/11 02:00:43;;;;;;;4.13;2.08;;;;;;;12.06;100.00;102092.72;5006066;28;20184;-50
2023/06/11 02:03:08;;;;;;;6.68;2.13;;;;;;;12.00;100.00;102090.19;5001733;28;20271;-48
2023/06/11 02:05:35;;;;;;;5.85;2.35;;;;;;;11.99;100.00;102091.13;5012133;28;20323;-49
2023/06/11 02:08:01;;;;;;;5.50;2.42;;;;;;;12.05;100.00;102091.84;5011479;28;20226;-48
2023/06/11 02:10:26;;;;;;;5.95;2.13;;;;;;;12.09;100.00;102092.66;5008967;28;20176;-48
2023/06/11 02:12:52;;;;;;;8.80;2.92;;;;;;;12.12;100.00;102097.97;5011604;28;20193;-49
2023/06/11 02:15:19;;;;;;;5.78;2.85;;;;;;;12.07;100.00;102100.78;5023740;28;20184;-49
2023/06/11 02:17:44;;;;;;;5.32;2.35;;;;;;;12.14;100.00;102099.69;5030396;28;20199;-50
2023/06/11 02:20:12;;;;;;;5.88;2.42;;;;;;;12.15;100.00;102104.13;5026388;28;20184;-49
2023/06/11 02:22:37;;;;;;;10.52;2.60;;;;;;;12.11;100.00;102096.19;4999089;28;20196;-48
2023/06/11 02:25:03;;;;;;;6.53;2.70;;;;;;;12.11;100.00;102102.47;5012358;28;20227;-53
2023/06/11 02:27:29;;;;;;;6.30;2.58;;;;;;;12.13;100.00;102099.72;5010435;28;20325;-53
2023/06/11 02:29:56;;;;;;;6.55;2.50;;;;;;;12.13;100.00;102095.25;5011764;28;20198;-55
2023/06/11 02:32:22;;;;;;;8.50;2.83;;;;;;;12.10;100.00;102097.13;5003619;28;20188;-54
2023/06/11 02:34:48;;;;;;;4.32;2.20;;;;;;;12.16;100.00;102094.28;5037159;28;20195;-55
2023/06/11 02:37:13;;;;;;;4.70;2.53;;;;;;;12.10;100.00;102106.06;5019437;28;20791;-53
2023/06/11 02:39:39;;;;;;;9.52;2.55;;;;;;;12.07;100.00;102100.78;5009833;28;20184;-53
2023/06/11 02:42:05;;;;;;;6.80;2.60;;;;;;;12.11;100.00;102099.78;5015415;28;20326;-52
2023/06/11 02:44:31;;;;;;;6.00;2.42;;;;;;;12.16;100.00;102103.22;5018840;28;20207;-53
2023/06/11 02:46:57;;;;;;;8.18;3.03;;;;;;;12.16;100.00;102102.34;5018957;28;20232;-54
2023/06/11 02:49:22;;;;;;;8.57;2.70;;;;;;;12.13;100.00;102103.31;5020278;28;20693;-54
2023/06/11 02:51:48;;;;;;;7.78;2.90;;;;;;;12.08;100.00;102102.50;5016862;28;20208;-54
2023/06/11 02:54:13;;;;;;;7.82;2.63;;;;;;;12.09;100.00;102095.34;5016799;28;20276;-53
2023/06/11 02:56:39;;;;;;;9.00;3.22;;;;;;;12.11;100.00;102083.66;5039259;28;20210;-55
2023/06/11 02:59:05;;;;;;;9.73;3.58;;;;;;;12.12;100.00;102095.28;5014961;28;20181;-54
2023/06/11 03:01:31;;;;;;;10.38;3.28;;;;;;;12.20;100.00;102090.59;5038900;28;20193;-55
2023/06/11 03:03:56;;;;;;;10.45;3.50;;;;;;;12.07;100.00;102084.66;5009875;28;20591;-54
2023/06/11 03:06:25;;;;;;;6.70;3.03;;;;;;;12.11;100.00;102089.03;5010388;28;20204;-55
2023/06/11 03:08:53;;;;;;;7.13;2.75;;;;;;;12.31;100.00;102093.91;5032135;28;20236;-53
2023/06/11 03:11:18;;;;;;;7.53;3.00;;;;;;;12.19;100.00;102088.81;5006139;28;20185;-52
2023/06/11 03:13:46;;;;;;;6.28;3.22;;;;;;;12.27;100.00;102088.66;5005638;28;20177;-53
2023/06/11 03:16:11;;;;;;;10.88;3.15;;;;;;;12.24;100.00;102092.28;5019147;28;20192;-53
2023/06/11 03:18:37;;;;;;;6.90;3.00;;;;;;;12.21;100.00;102092.34;5015505;28;20229;-54
2023/06/11 03:21:02;;;;;;;8.48;3.42;;;;;;;12.18;100.00;102097.81;5007420;28;20180;-55
2023/06/11 03:23:28;;;;;;;7.30;2.88;;;;;;;12.22;100.00;102072.63;5010442;28;20601;-54
2023/06/11 03:25:55;;;;;;;8.48;2.80;;;;;;;12.23;100.00;102092.31;5011020;28;20210;-52
2023/06/11 03:28:22;;;;;;;8.55;2.88;;;;;;;12.25;100.00;102082.44;5010643;28;20267;-53
2023/06/11 03:30:48;;;;;;;9.13;3.28;;;;;;;12.41;100.00;102089.16;5011993;28;20630;-54
2023/06/11 03:33:14;;;;;;;6.80;2.92;;;;;;;12.46;100.00;102080.97;5031606;28;20189;-53
2023/06/11 03:35:40;;;;;;;8.90;3.65;;;;;;;12.35;100.00;102081.25;4999485;28;20268;-54
2023/06/11 03:38:17;;;;;;;8.50;3.20;;;;;;;12.42;100.00;102074.81;5035265;28;20249;-52
2023/06/11 03:40:43;;;;;;;7.63;3.05;;;;;;;12.34;100.00;102077.69;5003246;28;20185;-53
2023/06/11 03:43:09;;;;;;;7.40;2.72;;;;;;;12.41;100.00;102082.91;5010964;28;20650;-55
2023/06/11 03:45:37;;;;;;;13.48;3.70;;;;;;;12.42;100.00;102081.97;5010263;28;20172;-55
2023/06/11 03:48:04;;;;;;;8.40;3.45;;;;;;;12.46;100.00;102083.66;5021026;28;20208;-54
2023/06/11 03:50:31;;;;;;;7.72;3.08;;;;;;;12.43;100.00;102084.63;5032193;28;20572;-53
2023/06/11 03:52:56;;;;;;;5.90;3.15;;;;;;;12.49;100.00;102086.28;5018099;28;20181;-56
2023/06/11 03:55:22;;;;;;;11.95;3.45;;;;;;;12.65;100.00;102071.50;5022934;28;20255;-53
2023/06/11 03:57:48;;;;;;;6.65;3.20;;;;;;;12.61;100.00;102071.63;5020984;28;20288;-53
2023/06/11 04:00:14;;;;;;;9.68;3.42;;;;;;;12.63;100.00;102073.34;5003542;28;20564;-54
2023/06/11 04:02:39;;;;;;;9.35;3.30;;;;;;;12.63;100.00;102081.41;5020901;28;20322;-52
2023/06/11 04:05:06;;;;;;;11.23;2.95;;;;;;;12.69;100.00;102073.19;5008071;28;20245;-53
2023/06/11 04:07:33;;;;;;;7.13;3.22;;;;;;;12.77;100.00;102073.88;4983293;28;20211;-53
2023/06/11 04:09:59;;;;;;;11.38;3.28;;;;;;;12.84;100.00;102071.03;5036381;28;20179;-53
2023/06/11 04:12:26;;;;;;;9.35;3.33;;;;;;;12.83;100.00;102070.13;5034952;28;20698;-54
2023/06/11 04:14:51;;;;;;;6.25;2.95;;;;;;;12.94;100.00;102069.81;4989167;28;20563;-54
2023/06/11 04:17:17;;;;;;;6.05;3.38;;;;;;;12.97;100.00;102072.44;5008895;28;20201;-55
2023/06/11 04:19:43;;;;;;;14.45;3.20;;;;;;;12.99;100.00;102084.03;5003310;28;20184;-54
2023/06/11 04:22:09;;;;;;;10.55;3.13;;;;;;;13.01;100.00;102075.91;5010282;28;20634;-55
2023/06/11 04:24:35;;;;;;;10.93;2.80;;;;;;;13.06;100.00;102071.28;5017516;28;20251;-55
2023/06/11 04:27:00;;;;;;;6.80;2.80;;;;;;;13.20;100.00;102078.00;5031416;28;20231;-53
2023/06/11 04:29:29;;;;;;;7.80;2.78;;;;;;;13.25;100.00;102077.91;5003162;28;20237;-55
2023/06/11 04:31:56;;;;;;;9.85;3.50;;;;;;;13.28;100.00;102082.31;5003303;28;20184;-55
2023/06/11 04:34:28;;;;;;;6.93;2.83;;;;;;;13.38;100.00;102078.44;5040483;28;20171;-55
2023/06/11 04:36:58;;;;;;;8.07;2.80;;;;;;;13.46;100.00;102071.00;5008777;28;20274;-51
2023/06/11 04:39:24;;;;;;;10.25;2.97;;;;;;;13.43;100.00;102068.44;5017498;28;20722;-52
2023/06/11 04:41:51;;;;;;;10.30;3.45;;;;;;;13.53;100.00;102066.31;5019970;28;20181;-51
2023/06/11 04:44:21;;;;;;;7.82;2.88;;;;;;;13.57;100.00;102062.59;5007729;28;20300;-52
2023/06/11 04:46:48;;;;;;;7.88;3.25;;;;;;;13.66;100.00;102069.53;5011796;28;20482;-53
2023/06/11 04:49:20;;;;;;;8.15;2.90;;;;;;;13.72;100.00;102066.63;5007231;28;20188;-52
2023/06/11 04:51:48;;;;;;;7.75;2.80;;;;;;;13.75;100.00;102072.81;4997703;28;20206;-54
2023/06/11 04:54:17;;;;;;;7.68;3.22;;;;;;;13.81;100.00;102061.81;4992019;28;20184;-52
2023/06/11 04:56:44;;;;;;;7.43;2.58;;;;;;;13.90;100.00;102070.56;5023768;23;20296;-49
2023/06/11 04:59:10;;;;;;;6.13;2.63;;;;;;;14.06;100.00;102058.34;5029741;28;20188;-53
2023/06/11 05:01:37;;;;;;;7.25;3.05;;;;;;;14.10;100.00;102051.03;5022687;28;20761;-53
2023/06/11 05:04:04;;;;;;;9.10;2.95;;;;;;;14.18;100.00;102054.38;5019312;28;20649;-53
2023/06/11 05:06:30;;;;;;;7.10;2.55;;;;;;;14.22;100.00;102056.03;5031823;28;20212;-53
2023/06/11 05:08:56;;;;;;;7.55;2.95;;;;;;;14.26;100.00;102043.34;5011647;28;20188;-51
2023/06/11 05:11:23;;;;;;;10.45;2.90;;;;;;;14.43;100.00;102049.91;5014734;28;20737;-51
2023/06/11 05:13:48;;;;;;;11.93;3.00;;;;;;;14.45;100.00;102060.59;5003056;28;20272;-52
2023/06/11 05:16:14;;;;;;;4.03;2.30;;;;;;;14.53;100.00;102046.88;5004964;28;20184;-52
2023/06/11 05:18:40;;;;;;;7.55;2.78;;;;;;;14.61;100.00;102048.41;5001039;28;20181;-53
2023/06/11 05:21:07;;;;;;;7.90;2.60;;;;;;;14.73;100.00;102051.59;4994066;28;20193;-54
2023/06/11 05:23:33;;;;;;;8.77;2.70;;;;;;;14.82;100.00;102054.84;5013632;28;20212;-52
2023/06/11 05:26:12;;;;;;;6.65;2.65;;;;;;;14.86;100.00;102057.44;5000528;28;20177;-51
2023/06/11 05:28:40;;;;;;;6.53;2.60;;;;;;;14.96;100.00;102045.38;5000136;28;20282;-52
2023/06/11 05:31:09;;;;;;;5.93;2.17;;;;;;;15.02;100.00;102050.50;4999229;28;20268;-51
2023/06/11 05:33:36;;;;;;;7.63;2.65;;;;;;;15.04;100.00;102044.13;5018106;28;20192;-51
2023/06/11 05:36:02;;;;;;;7.50;2.70;;;;;;;15.11;100.00;102051.97;4999324;28;20221;-50
2023/06/11 05:38:28;;;;;;;5.75;2.00;;;;;;;15.29;100.00;102042.31;4992798;28;20180;-53
2023/06/11 05:40:55;;;;;;;8.23;2.45;;;;;;;15.44;100.00;102037.19;5000750;28;20173;-51
2023/06/11 05:43:20;;;;;;;9.38;2.20;;;;;;;15.50;100.00;102049.56;5016966;28;20306;-52
2023/06/11 05:45:48;;;;;;;6.70;2.30;;;;;;;15.49;100.00;102031.63;5006485;28;20636;-53
2023/06/11 05:48:15;;;;;;;7.30;2.30;;;;;;;15.62;100.00;102038.28;5009151;28;20200;-52
2023/06/11 05:50:41;;;;;;;7.80;2.50;;;;;;;15.68;99.39;102047.97;4994146;28;20189;-53
2023/06/11 05:53:09;;;;;;;9.93;2.88;;;;;;;15.93;98.13;102053.28;5013324;28;20185;-52
2023/06/11 05:55:37;;;;;;;5.43;2.28;;;;;;;16.07;96.76;102039.22;5009154;28;20192;-52
2023/06/11 05:58:04;;;;;;;6.78;2.38;;;;;;;16.12;95.25;102045.31;5018719;28;20267;-52
2023/06/11 06:00:29;;;;;;;5.40;2.50;;;;;;;15.97;93.63;102049.50;5013057;28;20696;-52
2023/06/11 06:02:55;;;;;;;7.53;2.40;;;;;;;16.08;92.41;102046.38;4999132;28;20174;-54
2023/06/11 06:05:25;;;;;;;5.30;2.33;;;;;;;16.19;91.57;102048.63;5005082;28;20296;-52
2023/06/11 06:07:51;;;;;;;6.85;2.30;;;;;;;16.26;90.87;102044.72;5020556;28;20197;-54
2023/06/11 06:10:17;;;;;;;7.07;2.55;;;;;;;16.45;90.28;102040.25;5036034;28;20710;-53
2023/06/11 06:12:42;;;;;;;6.70;2.15;;;;;;;16.38;89.29;102033.38;5000823;28;20212;-53
2023/06/11 06:15:10;;;;;;;7.22;2.70;;;;;;;16.50;88.61;102031.94;5035697;28;20178;-51
2023/06/11 06:17:38;;;;;;;6.38;2.28;;;;;;;16.80;88.05;102027.03;5020322;28;20209;-53
2023/06/11 06:20:04;;;;;;;4.80;2.20;;;;;;;16.94;87.43;102028.22;5033080;28;20184;-52
2023/06/11 06:22:31;;;;;;;7.93;2.40;;;;;;;16.86;85.92;102042.13;5000538;28;20224;-52
2023/06/11 06:24:57;;;;;;;11.88;2.45;;;;;;;16.95;85.08;102027.28;4995323;28;20624;-53
2023/06/11 06:27:23;;;;;;;4.53;2.30;;;;;;;17.18;84.42;102026.22;5017753;28;20196;-51
2023/06/11 06:29:49;;;;;;;7.35;2.40;;;;;;;17.40;83.42;102029.66;5014267;28;20182;-51
2023/06/11 06:32:15;;;;;;;5.75;2.15;;;;;;;17.68;82.61;102025.63;5005564;28;20792;-51
2023/06/11 06:34:41;;;;;;;5.15;1.85;;;;;;;17.63;82.21;102019.56;5003413;28;20186;-50
2023/06/11 06:37:07;;;;;;;9.52;2.78;;;;;;;17.75;80.91;102007.22;4997632;28;20204;-51
2023/06/11 06:39:34;;;;;;;3.95;1.95;;;;;;;17.91;79.70;102002.84;5012096;28;20180;-52
2023/06/11 06:42:00;;;;;;;8.73;2.72;;;;;;;18.02;78.28;102008.59;4999687;28;20766;-52
2023/06/11 06:44:36;;;;;;;8.27;2.55;;;;;;;17.91;77.87;102006.41;5017198;28;20261;-51
2023/06/11 06:47:02;;;;;;;7.68;2.33;;;;;;;18.11;76.88;102009.97;5007078;28;20263;-50
2023/06/11 06:49:28;;;;;;;5.32;2.63;;;;;;;18.44;75.61;102010.03;5020846;28;20251;-53
2023/06/11 06:51:54;;;;;;;5.82;2.20;;;;;;;18.41;75.08;102006.59;4999410;28;20173;-52
2023/06/11 06:54:19;;;;;;;7.57;2.35;;;;;;;18.54;74.33;102002.28;4994814;28;20583;-51
2023/06/11 06:56:47;;;;;;;7.05;2.50;;;;;;;18.71;73.89;102004.09;5001971;28;20411;-51
2023/06/11 06:59:14;;;;;;;5.25;2.33;;;;;;;19.02;73.99;101995.22;5017119;28;20707;-51
2023/06/11 07:01:40;;;;;;;3.88;2.20;;;;;;;19.00;73.21;101990.81;5014973;28;20243;-51
2023/06/11 07:04:06;;;;;;;5.65;2.25;;;;;;;19.52;73.17;102001.47;4993761;28;20266;-49
2023/06/11 07:06:32;;;;;;;4.45;2.40;;;;;;;19.09;71.46;101993.03;4993242;28;20197;-50
2023/06/11 07:08:57;;;;;;;4.20;1.85;;;;;;;19.24;69.41;101975.88;5017160;28;20197;-51
2023/06/11 07:11:23;;;;;;;12.48;2.63;;;;;;;19.53;67.77;101968.75;4997969;28;20215;-51
2023/06/11 07:13:49;;;;;;;8.57;2.38;;;;;;;19.67;67.67;101969.78;5011618;28;20172;-49
2023/06/11 07:16:15;;;;;;;4.72;2.15;;;;;;;19.63;67.84;101982.69;5003133;28;20187;-51
2023/06/11 07:18:47;;;;;;;4.35;2.17;;;;;;;19.18;69.40;101991.66;5036997;28;20195;-51
2023/06/11 07:21:14;;;;;;;7.30;2.20;;;;;;;19.43;68.45;101982.97;5001363;28;20180;-49
2023/06/11 07:23:42;;;;;;;6.07;2.15;;;;;;;19.48;67.98;101972.69;4991630;28;20290;-52
2023/06/11 07:26:07;;;;;;;4.95;2.08;;;;;;;19.42;67.46;101975.78;5028511;28;20199;-54
2023/06/11 07:28:34;;;;;;;5.72;2.22;;;;;;;19.72;66.53;101976.75;5001590;28;20186;-50
2023/06/11 07:31:00;;;;;;;3.55;2.22;;;;;;;19.82;66.62;101978.94;5001291;28;20188;-51
2023/06/11 07:33:26;;;;;;;3.80;1.92;;;;;;;20.04;67.22;101983.97;5029392;28;20236;-51
2023/06/11 07:35:54;;;;;;;4.22;2.40;;;;;;;20.41;65.75;101981.75;5026744;28;20197;-52
2023/06/11 07:38:21;;;;;;;2.78;2.15;;;;;;;20.37;65.26;101972.88;5014779;28;20218;-50
2023/06/11 07:40:46;;;;;;;5.60;2.40;;;;;;;20.82;64.18;101976.50;5000931;28;20258;-51
2023/06/11 07:43:12;;;;;;;5.25;2.33;;;;;;;20.74;63.16;101965.19;5020421;28;20279;-49
2023/06/11 07:45:38;;;;;;;4.13;2.00;;;;;;;20.78;63.04;101964.03;5000179;28;20261;-47
2023/06/11 07:48:04;;;;;;;5.28;2.30;;;;;;;20.79;62.26;101954.88;5014324;28;20258;-50
2023/06/11 07:50:30;;;;;;;10.68;2.33;;;;;;;21.15;61.25;101957.09;5018749;28;20191;-51
2023/06/11 07:52:56;;;;;;;5.57;2.33;;;;;;;21.20;60.64;101948.63;5000065;28;20173;-50
2023/06/11 07:55:25;;;;;;;4.47;2.10;;;;;;;21.31;60.35;101951.50;5010913;28;20257;-49
2023/06/11 07:57:51;;;;;;;6.07;2.15;;;;;;;21.13;59.87;101939.09;4997821;28;20220;-48
2023/06/11 08:00:17;;;;;;;5.22;2.00;;;;;;;21.23;59.27;101939.34;5001612;28;20186;-47
2023/06/11 08:02:44;;;;;;;4.07;1.95;;;;;;;21.65;58.89;101932.94;5006497;28;20662;-48
2023/06/11 08:05:17;;;;;;;10.15;2.25;;;;;;;21.80;57.60;101928.31;5005319;28;20200;-49
2023/06/11 08:07:44;;;;;;;8.27;2.08;;;;;;;21.53;57.15;101912.81;4999915;28;20329;-48
2023/06/11 08:10:10;;;;;;;5.20;1.95;;;;;;;21.55;56.27;101901.81;4994388;28;20180;-49
2023/06/11 08:12:36;;;;;;;4.72;2.20;;;;;;;21.54;56.48;101916.44;5000622;28;20643;-49
2023/06/11 08:15:02;;;;;;;6.63;2.20;;;;;;;21.80;57.28;101923.72;5001236;28;20189;-49
2023/06/11 08:17:27;;;;;;;5.82;2.03;;;;;;;21.66;57.44;101925.63;5002932;28;20211;-48
2023/06/11 08:19:53;;;;;;;6.05;2.10;;;;;;;22.01;56.93;101918.63;5003118;28;20542;-48
2023/06/11 08:22:18;;;;;;;4.03;2.22;;;;;;;21.91;57.71;101935.72;5001053;28;21013;-47
2023/06/11 08:24:44;;;;;;;3.97;2.28;;;;;;;21.99;57.55;101936.09;4999471;28;20208;-49
2023/06/11 08:27:09;;;;;;;2.42;2.13;;;;;;;21.72;57.87;101933.41;4997450;28;20188;-49
2023/06/11 08:29:35;;;;;;;4.05;2.35;;;;;;;22.06;58.53;101950.19;4992608;28;20549;-48
2023/06/11 08:32:01;;;;;;;6.60;2.15;;;;;;;22.36;58.61;101947.22;4997548;28;20621;-48
2023/06/11 08:34:26;;;;;;;5.82;2.28;;;;;;;22.39;57.09;101930.59;5002392;28;20255;-47
2023/06/11 08:36:52;;;;;;;3.15;2.10;;;;;;;22.63;57.33;101938.94;4997538;28;20211;-47
2023/06/11 08:39:17;;;;;;;7.20;2.15;;;;;;;22.52;57.44;101944.25;4991890;28;20213;-48
2023/06/11 08:41:43;;;;;;;5.28;2.17;;;;;;;21.88;57.79;101949.59;4993348;28;20184;-48
2023/06/11 08:44:08;;;;;;;3.92;1.95;;;;;;;22.34;57.12;101940.97;4996256;28;20196;-49
2023/06/11 08:46:35;;;;;;;6.63;1.98;;;;;;;22.58;57.36;101944.69;4997880;28;20234;-48
2023/06/11 08:49:06;;;;;;;5.50;2.25;;;;;;;22.25;56.82;101933.44;4996467;28;20651;-48
2023/06/11 08:51:38;;;;;;;5.88;2.13;;;;;;;22.52;57.25;101942.44;4995896;28;20271;-47
2023/06/11 08:54:07;;;;;;;5.45;2.38;;;;;;;22.90;57.59;101948.84;4996673;28;20663;-48
2023/06/11 08:56:34;;;;;;;6.32;2.03;;;;;;;22.99;57.50;101946.31;4997518;28;20683;-47
2023/06/11 08:59:00;;;;;;;4.07;2.10;;;;;;;22.97;57.08;101948.28;4999401;28;20215;-49
2023/06/11 09:01:26;;;;;;;11.73;2.00;;;;;;;22.48;56.88;101940.00;4996475;28;20180;-48
2023/06/11 09:03:52;;;;;;;5.68;2.22;;;;;;;22.87;56.35;101936.28;5000871;28;20754;-49
2023/06/11 09:06:18;;;;;;;6.10;1.95;;;;;;;23.36;54.85;101937.28;4997774;28;20209;-47
2023/06/11 09:08:57;;;;;;;4.63;2.33;;;;;;;23.60;54.40;101929.09;5018215;28;20181;-49
2023/06/11 09:11:23;;;;;;;6.97;1.98;;;;;;;22.65;54.73;101922.41;4995423;28;20271;-49
2023/06/11 09:13:48;;;;;;;4.30;2.00;;;;;;;23.09;54.17;101915.59;4997437;28;20656;-46
2023/06/11 09:16:14;;;;;;;5.72;2.00;;;;;;;23.31;54.18;101920.31;5003079;28;20184;-47
2023/06/11 09:18:43;;;;;;;4.15;2.00;;;;;;;23.52;52.96;101906.91;4999402;28;20185;-48
2023/06/11 09:21:11;;;;;;;3.70;2.10;;;;;;;22.68;55.86;101930.41;4999469;28;20782;-49
2023/06/11 09:23:38;;;;;;;4.95;2.10;;;;;;;23.18;54.33;101923.13;4999005;28;20196;-47
2023/06/11 09:26:04;;;;;;;4.88;2.05;;;;;;;23.16;54.13;101925.09;4997340;28;20188;-51
2023/06/11 09:28:34;;;;;;;6.43;2.05;;;;;;;23.69;53.81;101933.84;4994567;28;20591;-48
2023/06/11 09:31:01;;;;;;;5.50;2.20;;;;;;;23.60;55.39;101940.91;4998182;28;20184;-48
2023/06/11 09:33:28;;;;;;;6.15;2.00;;;;;;;22.99;56.29;101938.09;5000372;28;20196;-47
2023/06/11 09:35:54;;;;;;;9.80;2.63;;;;;;;23.10;56.33;101950.16;5018011;28;20192;-47
2023/06/11 09:38:21;;;;;;;6.47;2.72;;;;;;;22.94;57.53;101972.25;5004447;28;20749;-47
2023/06/11 09:40:46;;;;;;;8.10;2.45;;;;;;;22.93;57.48;101965.88;4996673;28;20224;-47
2023/06/11 09:43:13;;;;;;;6.82;2.47;;;;;;;22.54;57.67;101956.84;4993663;28;20267;-46
2023/06/11 09:45:39;;;;;;;6.45;2.45;;;;;;;23.24;58.83;101978.22;4997491;28;20295;-47
2023/06/11 09:48:05;;;;;;;5.47;2.33;;;;;;;23.60;57.12;101964.66;5000468;28;20291;-47
2023/06/11 09:50:33;;;;;;;4.72;2.20;;;;;;;22.85;60.34;101992.91;5001648;28;20731;-48
2023/06/11 09:53:02;;;;;;;8.02;2.45;;;;;;;22.93;59.28;102001.41;5005031;28;20228;-47
2023/06/11 09:55:30;;;;;;;6.38;2.33;;;;;;;22.67;59.34;101989.59;5007569;28;20536;-48
2023/06/11 09:57:56;;;;;;;7.88;2.47;;;;;;;22.61;59.91;101996.41;4992326;28;20220;-46
2023/06/11 10:00:22;;;;;;;6.88;2.30;;;;;;;23.01;59.23;101999.03;4994517;28;20260;-47
2023/06/11 10:02:47;;;;;;;8.88;2.95;;;;;;;22.76;59.95;101999.00;4997531;28;20236;-48
2023/06/11 10:05:14;;;;;;;8.80;2.95;;;;;;;23.25;59.77;102003.72;4998050;28;20196;-46
2023/06/11 10:07:46;;;;;;;5.72;2.50;;;;;;;23.14;59.06;101989.97;5020602;28;20284;-49
2023/06/11 10:10:15;;;;;;;7.13;2.00;;;;;;;22.92;57.99;101977.81;5000065;28;20294;-47
2023/06/11 10:12:40;;;;;;;6.82;2.10;;;;;;;22.44;58.70;101987.66;4997287;28;20196;-46
2023/06/11 10:15:10;;;;;;;9.95;2.40;;;;;;;22.60;58.47;101989.16;4995848;28;20179;-48
2023/06/11 10:17:36;;;;;;;7.53;2.42;;;;;;;22.71;58.85;101988.41;5001093;28;20204;-48
2023/06/11 10:20:01;;;;;;;5.43;2.35;;;;;;;22.53;59.07;101990.59;5002599;28;20198;-48
2023/06/11 10:22:35;;;;;;;10.80;2.40;;;;;;;22.31;58.36;101977.56;5004463;28;20199;-49
2023/06/11 10:25:02;;;;;;;5.70;2.28;;;;;;;22.68;59.24;101980.44;4995385;28;20197;-50
2023/06/11 10:27:39;;;;;;;7.15;2.20;;;;;;;23.82;58.12;101988.56;5004338;28;20219;-49
2023/06/11 10:30:08;;;;;;;7.70;2.35;;;;;;;23.67;57.19;101973.28;4998694;28;20200;-47
2023/06/11 10:32:34;;;;;;;4.75;2.38;;;;;;;23.49;55.96;101965.47;4999867;28;20180;-48
2023/06/11 10:35:03;;;;;;;5.10;2.42;;;;;;;23.38;55.69;101946.25;5004016;28;20630;-48
2023/06/11 10:37:31;;;;;;;10.07;2.70;;;;;;;22.90;56.94;101960.66;5001310;28;20637;-48
2023/06/11 10:39:56;;;;;;;7.47;2.45;;;;;;;22.89;56.58;101955.28;5002886;28;20363;-49
2023/06/11 10:42:27;;;;;;;5.72;2.00;;;;;;;22.97;56.97;101972.88;4993790;28;20263;-48
2023/06/11 10:44:59;;;;;;;4.55;1.90;;;;;;;23.27;55.24;101955.25;4996630;28;20294;-49
2023/06/11 10:47:26;;;;;;;5.45;2.38;;;;;;;23.01;55.84;101960.78;5001477;28;20212;-48
2023/06/11 10:49:53;;;;;;;4.22;2.13;;;;;;;22.69;56.37;101964.91;5003642;28;20184;-46
2023/06/11 10:52:19;;;;;;;7.55;2.03;;;;;;;23.07;55.10;101956.72;5003302;28;20191;-49
2023/06/11 10:54:50;;;;;;;7.07;2.30;;;;;;;22.87;55.14;101951.78;5002805;28;20259;-46
2023/06/11 10:57:15;;;;;;;4.93;2.40;;;;;;;22.61;55.46;101952.69;5000507;28;20250;-48
2023/06/11 10:59:41;;;;;;;6.82;2.65;;;;;;;22.73;55.37;101952.78;5002011;28;20188;-47
2023/06/11 11:02:13;;;;;;;5.15;2.10;;;;;;;23.11;55.19;101955.53;5007865;28;20641;-50
2023/06/11 11:04:51;;;;;;;3.15;2.15;;;;;;;23.12;54.26;101938.13;5001175;28;20759;-48
2023/06/11 11:07:18;;;;;;;6.70;2.42;;;;;;;23.14;54.16;101938.88;5002946;28;20634;-50
2023/06/11 11:09:44;;;;;;;5.38;2.00;;;;;;;23.18;53.51;101934.94;5000998;28;20259;-48
2023/06/11 11:12:11;;;;;;;6.18;2.28;;;;;;;23.27;53.75;101927.91;5003352;28;20227;-48
2023/06/11 11:14:37;;;;;;;3.78;2.13;;;;;;;23.43;53.10;101931.22;5002370;28;20169;-49
2023/06/11 11:17:03;;;;;;;3.25;1.98;;;;;;;23.02;53.08;101918.81;4999118;28;20303;-48
2023/06/11 11:19:30;;;;;;;3.63;1.90;;;;;;;23.37;53.89;101928.94;5003303;28;20287;-49
2023/06/11 11:21:55;;;;;;;4.15;1.92;;;;;;;23.70;53.08;101929.25;4997907;28;20239;-50
2023/06/11 11:24:21;;;;;;;4.80;2.10;;;;;;;23.78;52.38;101911.28;5003892;28;20204;-49